EW5449 Weather Reports


Display with metric or nautical units.
time (UTC)temp
F
wind
direction
speed
MPH
gust
MPH
rain 1hr
in
rain 24hr
in
rain mn
in
humidity
%
barometer
mb
20200406054719 55 304 0.0 3.0 0.00 0.03 0.00 88 1016.5
20200406053033 55 227 0.0 2.0 0.00 0.03 0.00 89 1016.7
20200406051539 55 226 0.0 2.0 0.00 0.03 0.00 89 1016.7
20200406050043 55 229 0.0 3.0 0.00 0.03 0.00 89 1016.8
20200406044605 55 280 0.0 1.0 0.00 0.03 0.00 90 1016.8
20200406043041 56 280 0.0 1.0 0.00 0.03 0.00 89 1016.7
20200406041611 56 280 0.0 1.0 0.00 0.03 0.00 88 1016.8
20200406040038 57 280 0.0 3.0 0.00 0.03 0.00 85 1016.8
20200406034531 56 280 0.0 2.0 0.00 0.03 0.03 88 1016.7
20200406033020 56 280 0.0 3.0 0.00 0.03 0.03 90 1016.7
20200406031617 55 280 0.0 3.0 0.00 0.03 0.03 93 1016.7
20200406030056 55 157 0.0 1.0 0.00 0.03 0.03 93 1016.8
20200406024523 56 157 0.0 0.0 0.00 0.03 0.03 93 1016.8
20200406023022 56 157 0.0 0.0 0.00 0.03 0.03 92 1016.8
20200406021540 56 157 0.0 2.0 0.00 0.03 0.03 92 1016.8
20200406020018 57 157 0.0 0.0 0.01 0.03 0.03 91 1016.8
20200406014520 57 157 0.0 1.0 0.01 0.03 0.03 91 1016.8
20200406013030 57 157 0.0 0.0 0.02 0.03 0.03 90 1016.7
20200406011551 58 157 0.0 2.0 0.02 0.03 0.03 89 1016.8
20200406010029 58 157 0.0 1.0 0.01 0.02 0.02 85 1016.7
20200406004612 59 157 0.0 0.0 0.01 0.02 0.02 82 1016.5
20200406003115 58 157 0.0 3.0 0.00 0.01 0.01 80 1016.4
20200406001538 59 157 0.0 1.0 0.00 0.01 0.01 79 1016.3
20200406000033 59 157 0.0 6.0 0.00 0.01 0.01 79 1016.3
20200405234517 59 184 1.0 3.0 0.00 0.01 0.01 78 1016.3
20200405233021 60 296 0.0 2.0 0.00 0.01 0.01 76 1016.2
20200405231543 60 296 0.0 2.0 0.00 0.01 0.01 76 1016.2
20200405230036 60 296 0.0 3.0 0.01 0.01 0.01 75 1016.3
20200405224551 60 347 0.0 5.0 0.01 0.01 0.01 74 1016.4
20200405223011 60 46 1.0 4.0 0.01 0.01 0.01 74 1016.4
20200405221513 63 5 2.0 15.0 0.01 0.01 0.01 69 1016.5
20200405220121 68 121 0.0 1.0 0.00 0.00 0.00 57 1015.8
20200405214511 68 121 0.0 2.0 0.00 0.00 0.00 47 1015.1
20200405213020 69 121 1.0 3.0 0.00 0.00 0.00 46 1015.0
20200405211510 69 120 1.0 3.0 0.00 0.00 0.00 45 1014.9
20200405210016 70 132 0.0 5.0 0.00 0.00 0.00 45 1014.9
20200405204533 70 146 1.0 5.0 0.00 0.00 0.00 44 1014.9
20200405203003 71 172 2.0 6.0 0.00 0.00 0.00 43 1015.0
20200405201723 70 165 1.0 6.0 0.00 0.00 0.00 46 1014.9
20200405200312 71 140 1.0 9.0 0.00 0.00 0.00 44 1015.2
20200405194655 70 146 4.0 7.0 0.00 0.00 0.00 44 1015.4
20200405193145 69 144 1.0 9.0 0.00 0.00 0.00 47 1015.5
20200405191644 69 142 2.0 7.0 0.00 0.00 0.00 46 1015.6
20200405190105 70 146 3.0 7.0 0.00 0.00 0.00 45 1016.0
20200405184603 69 57 2.0 5.0 0.00 0.00 0.00 47 1016.1
20200405183139 68 175 2.0 8.0 0.00 0.00 0.00 46 1016.3
20200405181635 68 68 0.0 5.0 0.00 0.00 0.00 49 1016.4
20200405180057 67 167 3.0 9.0 0.00 0.00 0.00 50 1016.5
20200405174605 67 143 2.0 8.0 0.00 0.00 0.00 50 1016.7
20200405173041 67 151 2.0 7.0 0.00 0.00 0.00 50 1016.8
20200405171535 67 187 2.0 5.0 0.00 0.00 0.00 49 1017.2
20200405170042 66 68 1.0 4.0 0.00 0.00 0.00 55 1017.3
20200405164620 64 163 3.0 5.0 0.00 0.00 0.00 57 1017.4
20200405163032 64 143 2.0 8.0 0.00 0.00 0.00 58 1017.6
20200405161529 63 143 1.0 7.0 0.00 0.00 0.00 60 1017.7
20200405160024 63 169 1.0 5.0 0.00 0.00 0.00 59 1017.8
20200405154522 61 83 0.0 5.0 0.00 0.00 0.00 64 1018.1
20200405153027 60 63 1.0 4.0 0.00 0.00 0.00 65 1018.3
20200405151513 59 280 0.0 2.0 0.00 0.00 0.00 64 1018.4
20200405150005 58 244 2.0 6.0 0.00 0.00 0.00 67 1018.4
20200405143058 55 215 1.0 3.0 0.00 0.00 0.00 72 1018.3
20200405141627 55 288 1.0 4.0 0.00 0.00 0.00 73 1018.0
20200405140119 54 218 0.0 2.0 0.00 0.00 0.00 75 1018.0
20200405134619 53 218 0.0 3.0 0.00 0.00 0.00 75 1018.1
20200405133058 52 211 0.0 2.0 0.00 0.00 0.00 76 1018.2
20200405131551 51 211 0.0 2.0 0.00 0.00 0.00 78 1018.3
20200405130119 49 211 1.0 3.0 0.00 0.00 0.00 84 1018.2
20200405124553 46 138 0.0 2.0 0.00 0.00 0.00 89 1018.2
20200405123044 44 138 0.0 0.0 0.00 0.00 0.00 93 1018.1
20200405121537 43 138 0.0 0.0 0.00 0.00 0.00 95 1018.1
20200405120039 41 138 0.0 0.0 0.00 0.00 0.00 95 1018.0
20200405114619 40 138 0.0 0.0 0.00 0.00 0.00 94 1017.9
20200405113023 40 138 0.0 0.0 0.00 0.00 0.00 94 1017.6
20200405111614 39 138 0.0 0.0 0.00 0.00 0.00 93 1017.5
20200405110058 39 138 0.0 0.0 0.00 0.00 0.00 93 1017.3
20200405104522 40 138 0.0 0.0 0.00 0.00 0.00 93 1017.2
20200405103039 40 138 0.0 0.0 0.00 0.00 0.00 93 1017.1
20200405101524 40 138 0.0 0.0 0.00 0.00 0.00 93 1017.1
20200405100018 41 138 0.0 1.0 0.00 0.00 0.00 93 1017.0
20200405094536 41 138 0.0 0.0 0.00 0.00 0.00 94 1017.0
20200405093030 41 138 0.0 0.0 0.00 0.00 0.00 93 1016.9
20200405091514 42 138 0.0 0.0 0.00 0.00 0.00 93 1016.8
20200405090020 42 138 0.0 1.0 0.00 0.00 0.00 93 1017.0
20200405084508 43 138 0.0 2.0 0.00 0.00 0.00 92 1016.9
20200405083027 43 138 0.0 0.0 0.00 0.00 0.00 93 1016.9
20200405081505 43 138 0.0 0.0 0.00 0.00 0.00 93 1016.9
20200405080130 43 138 0.0 0.0 0.00 0.00 0.00 93 1016.9
20200405074708 43 138 0.0 0.0 0.00 0.00 0.00 93 1016.9
20200405073110 43 138 0.0 1.0 0.00 0.00 0.00 93 1016.8
20200405071658 44 138 0.0 0.0 0.00 0.00 0.00 93 1017.0
20200405070110 43 138 0.0 0.0 0.00 0.00 0.00 92 1016.9
20200405064618 44 138 0.0 0.0 0.00 0.00 0.00 92 1017.0
20200405063109 44 138 0.0 0.0 0.00 0.00 0.00 91 1017.1
20200405061629 43 138 0.0 0.0 0.00 0.00 0.00 90 1017.1
20200405060108 44 138 0.0 0.0 0.00 0.00 0.00 89 1017.2